sensor_id;sensor_type;location;lat;lon;timestamp;P1;durP1;ratioP1;P2;durP2;ratioP2
37205;SDS011;23099;42.636;23.198;2022-12-15T00:00:14;47.77;;;20.20;;
37205;SDS011;23099;42.636;23.198;2022-12-15T00:03:02;47.83;;;20.13;;
37205;SDS011;23099;42.636;23.198;2022-12-15T00:05:47;42.43;;;20.40;;
37205;SDS011;23099;42.636;23.198;2022-12-15T00:08:32;52.63;;;22.33;;
37205;SDS011;23099;42.636;23.198;2022-12-15T00:11:17;48.13;;;19.80;;
37205;SDS011;23099;42.636;23.198;2022-12-15T00:14:01;45.93;;;19.97;;
37205;SDS011;23099;42.636;23.198;2022-12-15T00:16:46;44.20;;;20.40;;
37205;SDS011;23099;42.636;23.198;2022-12-15T00:19:30;36.60;;;15.37;;
37205;SDS011;23099;42.636;23.198;2022-12-15T00:22:14;30.23;;;14.43;;
37205;SDS011;23099;42.636;23.198;2022-12-15T00:24:59;24.90;;;11.17;;
37205;SDS011;23099;42.636;23.198;2022-12-15T00:27:43;24.93;;;11.00;;
37205;SDS011;23099;42.636;23.198;2022-12-15T00:30:27;21.27;;;10.10;;
37205;SDS011;23099;42.636;23.198;2022-12-15T00:33:11;20.13;;;9.43;;
37205;SDS011;23099;42.636;23.198;2022-12-15T00:35:56;20.17;;;8.70;;
37205;SDS011;23099;42.636;23.198;2022-12-15T00:38:41;19.57;;;9.63;;
37205;SDS011;23099;42.636;23.198;2022-12-15T00:41:10;17.40;;;8.80;;
37205;SDS011;23099;42.636;23.198;2022-12-15T00:43:38;20.37;;;8.60;;
37205;SDS011;23099;42.636;23.198;2022-12-15T00:46:05;17.63;;;8.13;;
37205;SDS011;23099;42.636;23.198;2022-12-15T00:48:50;146.73;;;49.53;;
37205;SDS011;23099;42.636;23.198;2022-12-15T00:51:16;26.00;;;9.40;;
37205;SDS011;23099;42.636;23.198;2022-12-15T00:53:43;17.20;;;6.43;;
37205;SDS011;23099;42.636;23.198;2022-12-15T00:56:30;14.57;;;5.90;;
37205;SDS011;23099;42.636;23.198;2022-12-15T00:59:14;15.07;;;5.93;;
37205;SDS011;23099;42.636;23.198;2022-12-15T01:02:00;15.27;;;5.30;;
37205;SDS011;23099;42.636;23.198;2022-12-15T01:04:44;28.07;;;6.33;;
37205;SDS011;23099;42.636;23.198;2022-12-15T01:07:29;91.57;;;8.27;;
37205;SDS011;23099;42.636;23.198;2022-12-15T01:10:13;10.87;;;4.43;;
37205;SDS011;23099;42.636;23.198;2022-12-15T01:12:59;16.13;;;6.63;;
37205;SDS011;23099;42.636;23.198;2022-12-15T01:15:43;34.87;;;11.63;;
37205;SDS011;23099;42.636;23.198;2022-12-15T01:18:27;55.50;;;13.87;;
37205;SDS011;23099;42.636;23.198;2022-12-15T01:21:11;20.80;;;10.10;;
37205;SDS011;23099;42.636;23.198;2022-12-15T01:23:38;17.90;;;8.93;;
37205;SDS011;23099;42.636;23.198;2022-12-15T01:26:06;23.35;;;9.75;;
37205;SDS011;23099;42.636;23.198;2022-12-15T01:28:34;19.60;;;8.30;;
37205;SDS011;23099;42.636;23.198;2022-12-15T01:31:01;19.00;;;9.50;;
37205;SDS011;23099;42.636;23.198;2022-12-15T01:33:35;19.33;;;9.00;;
37205;SDS011;23099;42.636;23.198;2022-12-15T01:36:02;14.07;;;3.57;;
37205;SDS011;23099;42.636;23.198;2022-12-15T01:38:29;6.87;;;2.60;;
37205;SDS011;23099;42.636;23.198;2022-12-15T01:40:56;9.53;;;3.90;;
37205;SDS011;23099;42.636;23.198;2022-12-15T01:43:26;10.33;;;4.40;;
37205;SDS011;23099;42.636;23.198;2022-12-15T01:45:59;12.10;;;4.93;;
37205;SDS011;23099;42.636;23.198;2022-12-15T01:48:35;12.83;;;4.47;;
37205;SDS011;23099;42.636;23.198;2022-12-15T01:53:53;3.93;;;1.20;;
37205;SDS011;23099;42.636;23.198;2022-12-15T01:56:25;4.33;;;1.40;;
37205;SDS011;23099;42.636;23.198;2022-12-15T01:58:55;4.87;;;0.93;;
37205;SDS011;23099;42.636;23.198;2022-12-15T02:01:27;4.57;;;1.17;;
37205;SDS011;23099;42.636;23.198;2022-12-15T02:03:54;5.80;;;1.58;;
37205;SDS011;23099;42.636;23.198;2022-12-15T02:06:21;6.27;;;1.70;;
37205;SDS011;23099;42.636;23.198;2022-12-15T02:08:51;6.57;;;2.10;;
37205;SDS011;23099;42.636;23.198;2022-12-15T02:14:24;3.53;;;1.17;;
37205;SDS011;23099;42.636;23.198;2022-12-15T02:17:03;4.90;;;1.40;;
37205;SDS011;23099;42.636;23.198;2022-12-15T02:22:46;3.85;;;0.80;;
37205;SDS011;23099;42.636;23.198;2022-12-15T02:25:32;5.22;;;1.30;;
37205;SDS011;23099;42.636;23.198;2022-12-15T02:28:10;5.53;;;2.63;;
37205;SDS011;23099;42.636;23.198;2022-12-15T02:30:45;5.75;;;1.95;;
37205;SDS011;23099;42.636;23.198;2022-12-15T02:33:36;6.63;;;1.77;;
37205;SDS011;23099;42.636;23.198;2022-12-15T02:36:14;4.55;;;1.50;;
37205;SDS011;23099;42.636;23.198;2022-12-15T02:38:49;6.03;;;1.50;;
37205;SDS011;23099;42.636;23.198;2022-12-15T02:41:31;5.03;;;1.52;;
37205;SDS011;23099;42.636;23.198;2022-12-15T02:44:02;5.22;;;1.83;;
37205;SDS011;23099;42.636;23.198;2022-12-15T02:46:36;5.50;;;1.77;;
37205;SDS011;23099;42.636;23.198;2022-12-15T02:49:13;3.20;;;1.10;;
37205;SDS011;23099;42.636;23.198;2022-12-15T02:51:49;3.03;;;0.80;;
37205;SDS011;23099;42.636;23.198;2022-12-15T02:54:34;2.33;;;0.68;;
37205;SDS011;23099;42.636;23.198;2022-12-15T02:57:16;2.40;;;0.70;;
37205;SDS011;23099;42.636;23.198;2022-12-15T02:59:48;2.03;;;0.70;;
37205;SDS011;23099;42.636;23.198;2022-12-15T03:02:21;3.22;;;0.70;;
37205;SDS011;23099;42.636;23.198;2022-12-15T03:04:51;2.53;;;0.60;;
37205;SDS011;23099;42.636;23.198;2022-12-15T03:07:19;2.40;;;0.70;;
37205;SDS011;23099;42.636;23.198;2022-12-15T03:09:49;2.78;;;0.90;;
37205;SDS011;23099;42.636;23.198;2022-12-15T03:12:15;3.45;;;0.82;;
37205;SDS011;23099;42.636;23.198;2022-12-15T03:14:42;3.10;;;0.90;;
37205;SDS011;23099;42.636;23.198;2022-12-15T03:17:09;3.53;;;0.73;;
37205;SDS011;23099;42.636;23.198;2022-12-15T03:19:37;2.53;;;0.77;;
37205;SDS011;23099;42.636;23.198;2022-12-15T03:22:04;3.70;;;0.90;;
37205;SDS011;23099;42.636;23.198;2022-12-15T03:24:30;3.00;;;0.70;;
37205;SDS011;23099;42.636;23.198;2022-12-15T03:26:57;3.95;;;0.80;;
37205;SDS011;23099;42.636;23.198;2022-12-15T03:29:24;1.92;;;0.57;;
37205;SDS011;23099;42.636;23.198;2022-12-15T03:31:51;2.45;;;0.77;;
37205;SDS011;23099;42.636;23.198;2022-12-15T03:34:18;2.60;;;0.90;;
37205;SDS011;23099;42.636;23.198;2022-12-15T03:36:46;4.28;;;0.90;;
37205;SDS011;23099;42.636;23.198;2022-12-15T03:39:12;5.50;;;2.00;;
37205;SDS011;23099;42.636;23.198;2022-12-15T03:41:39;3.25;;;1.10;;
37205;SDS011;23099;42.636;23.198;2022-12-15T03:44:06;2.90;;;0.88;;
37205;SDS011;23099;42.636;23.198;2022-12-15T03:46:33;3.58;;;1.00;;
37205;SDS011;23099;42.636;23.198;2022-12-15T03:49:00;2.58;;;0.70;;
37205;SDS011;23099;42.636;23.198;2022-12-15T03:51:26;2.83;;;0.70;;
37205;SDS011;23099;42.636;23.198;2022-12-15T03:53:54;2.35;;;0.60;;
37205;SDS011;23099;42.636;23.198;2022-12-15T03:56:22;1.65;;;0.55;;
37205;SDS011;23099;42.636;23.198;2022-12-15T03:58:50;1.92;;;0.65;;
37205;SDS011;23099;42.636;23.198;2022-12-15T04:01:18;1.85;;;0.60;;
37205;SDS011;23099;42.636;23.198;2022-12-15T04:03:51;2.45;;;0.70;;
37205;SDS011;23099;42.636;23.198;2022-12-15T04:06:18;1.95;;;0.60;;
37205;SDS011;23099;42.636;23.198;2022-12-15T04:08:45;3.00;;;0.90;;
37205;SDS011;23099;42.636;23.198;2022-12-15T04:11:13;4.22;;;0.70;;
37205;SDS011;23099;42.636;23.198;2022-12-15T04:13:40;2.53;;;0.70;;
37205;SDS011;23099;42.636;23.198;2022-12-15T04:16:07;2.75;;;0.90;;
37205;SDS011;23099;42.636;23.198;2022-12-15T04:18:34;3.33;;;1.02;;
37205;SDS011;23099;42.636;23.198;2022-12-15T04:21:00;3.78;;;1.02;;
37205;SDS011;23099;42.636;23.198;2022-12-15T04:23:26;3.70;;;1.33;;
37205;SDS011;23099;42.636;23.198;2022-12-15T04:25:53;6.70;;;1.58;;
37205;SDS011;23099;42.636;23.198;2022-12-15T04:28:38;5.07;;;1.95;;
37205;SDS011;23099;42.636;23.198;2022-12-15T04:31:23;4.80;;;2.03;;
37205;SDS011;23099;42.636;23.198;2022-12-15T04:34:10;5.40;;;2.77;;
37205;SDS011;23099;42.636;23.198;2022-12-15T04:36:57;8.65;;;2.90;;
37205;SDS011;23099;42.636;23.198;2022-12-15T04:39:43;8.45;;;2.70;;
37205;SDS011;23099;42.636;23.198;2022-12-15T04:42:30;8.23;;;2.92;;
37205;SDS011;23099;42.636;23.198;2022-12-15T04:45:18;5.82;;;2.92;;
37205;SDS011;23099;42.636;23.198;2022-12-15T04:48:04;6.13;;;2.20;;
37205;SDS011;23099;42.636;23.198;2022-12-15T04:50:48;5.35;;;2.75;;
37205;SDS011;23099;42.636;23.198;2022-12-15T04:53:32;5.97;;;2.65;;
37205;SDS011;23099;42.636;23.198;2022-12-15T04:56:16;5.30;;;2.30;;
37205;SDS011;23099;42.636;23.198;2022-12-15T04:59:00;4.55;;;2.28;;
37205;SDS011;23099;42.636;23.198;2022-12-15T05:01:47;5.35;;;2.40;;
37205;SDS011;23099;42.636;23.198;2022-12-15T05:04:31;7.88;;;2.63;;
37205;SDS011;23099;42.636;23.198;2022-12-15T05:07:16;5.97;;;2.35;;
37205;SDS011;23099;42.636;23.198;2022-12-15T05:10:00;5.40;;;2.30;;
37205;SDS011;23099;42.636;23.198;2022-12-15T05:12:44;7.15;;;2.20;;
37205;SDS011;23099;42.636;23.198;2022-12-15T05:15:28;6.85;;;2.97;;
37205;SDS011;23099;42.636;23.198;2022-12-15T05:18:16;5.50;;;2.42;;
37205;SDS011;23099;42.636;23.198;2022-12-15T05:21:00;5.47;;;2.35;;
37205;SDS011;23099;42.636;23.198;2022-12-15T05:23:44;6.63;;;2.78;;
37205;SDS011;23099;42.636;23.198;2022-12-15T05:26:28;7.40;;;3.40;;
37205;SDS011;23099;42.636;23.198;2022-12-15T05:29:13;6.45;;;1.90;;
37205;SDS011;23099;42.636;23.198;2022-12-15T05:31:57;16.02;;;7.20;;
37205;SDS011;23099;42.636;23.198;2022-12-15T05:34:26;63.03;;;9.27;;
37205;SDS011;23099;42.636;23.198;2022-12-15T05:36:54;485.02;;;28.48;;
37205;SDS011;23099;42.636;23.198;2022-12-15T05:39:21;504.70;;;30.27;;
37205;SDS011;23099;42.636;23.198;2022-12-15T05:41:48;461.00;;;23.17;;
37205;SDS011;23099;42.636;23.198;2022-12-15T05:44:16;285.15;;;20.33;;
37205;SDS011;23099;42.636;23.198;2022-12-15T05:46:43;372.57;;;20.90;;
37205;SDS011;23099;42.636;23.198;2022-12-15T05:49:11;496.80;;;27.17;;
37205;SDS011;23099;42.636;23.198;2022-12-15T05:54:08;199.30;;;16.80;;
37205;SDS011;23099;42.636;23.198;2022-12-15T05:56:36;56.65;;;10.40;;
37205;SDS011;23099;42.636;23.198;2022-12-15T05:59:03;325.77;;;21.37;;
37205;SDS011;23099;42.636;23.198;2022-12-15T06:01:30;156.00;;;18.67;;
37205;SDS011;23099;42.636;23.198;2022-12-15T06:03:59;454.83;;;29.90;;
37205;SDS011;23099;42.636;23.198;2022-12-15T06:06:26;342.77;;;20.03;;
37205;SDS011;23099;42.636;23.198;2022-12-15T06:08:54;251.77;;;19.37;;
37205;SDS011;23099;42.636;23.198;2022-12-15T06:11:21;79.60;;;12.00;;
37205;SDS011;23099;42.636;23.198;2022-12-15T06:13:48;58.50;;;10.70;;
37205;SDS011;23099;42.636;23.198;2022-12-15T06:16:15;30.83;;;10.30;;
37205;SDS011;23099;42.636;23.198;2022-12-15T06:18:44;99.80;;;18.50;;
37205;SDS011;23099;42.636;23.198;2022-12-15T06:21:13;199.13;;;18.70;;
37205;SDS011;23099;42.636;23.198;2022-12-15T06:23:42;181.87;;;20.53;;
37205;SDS011;23099;42.636;23.198;2022-12-15T06:26:11;39.50;;;11.20;;
37205;SDS011;23099;42.636;23.198;2022-12-15T06:28:39;241.10;;;26.30;;
37205;SDS011;23099;42.636;23.198;2022-12-15T06:31:08;78.60;;;10.70;;
37205;SDS011;23099;42.636;23.198;2022-12-15T06:33:35;103.43;;;15.73;;
37205;SDS011;23099;42.636;23.198;2022-12-15T06:36:04;52.88;;;12.18;;
37205;SDS011;23099;42.636;23.198;2022-12-15T06:38:32;40.07;;;11.47;;
37205;SDS011;23099;42.636;23.198;2022-12-15T06:40:59;38.83;;;11.73;;
37205;SDS011;23099;42.636;23.198;2022-12-15T06:43:29;68.60;;;18.08;;
37205;SDS011;23099;42.636;23.198;2022-12-15T06:45:57;198.27;;;20.63;;
37205;SDS011;23099;42.636;23.198;2022-12-15T06:48:24;41.27;;;12.60;;
37205;SDS011;23099;42.636;23.198;2022-12-15T06:50:51;34.97;;;13.57;;
37205;SDS011;23099;42.636;23.198;2022-12-15T06:53:18;30.70;;;14.60;;
37205;SDS011;23099;42.636;23.198;2022-12-15T06:55:47;22.63;;;11.10;;
37205;SDS011;23099;42.636;23.198;2022-12-15T06:58:14;42.13;;;15.10;;
37205;SDS011;23099;42.636;23.198;2022-12-15T07:00:43;22.15;;;10.98;;
37205;SDS011;23099;42.636;23.198;2022-12-15T07:03:12;30.73;;;15.33;;
37205;SDS011;23099;42.636;23.198;2022-12-15T07:05:40;55.23;;;14.77;;
37205;SDS011;23099;42.636;23.198;2022-12-15T07:08:07;114.57;;;15.17;;
37205;SDS011;23099;42.636;23.198;2022-12-15T07:10:36;77.45;;;17.15;;
37205;SDS011;23099;42.636;23.198;2022-12-15T07:13:04;206.83;;;21.00;;
37205;SDS011;23099;42.636;23.198;2022-12-15T07:15:30;42.03;;;14.03;;
37205;SDS011;23099;42.636;23.198;2022-12-15T07:17:58;45.17;;;14.07;;
37205;SDS011;23099;42.636;23.198;2022-12-15T07:22:53;28.63;;;12.67;;
37205;SDS011;23099;42.636;23.198;2022-12-15T07:25:20;27.90;;;13.97;;
37205;SDS011;23099;42.636;23.198;2022-12-15T07:27:47;33.57;;;15.30;;
37205;SDS011;23099;42.636;23.198;2022-12-15T07:30:14;85.13;;;15.47;;
37205;SDS011;23099;42.636;23.198;2022-12-15T07:32:42;41.53;;;16.65;;
37205;SDS011;23099;42.636;23.198;2022-12-15T07:35:11;25.20;;;10.40;;
37205;SDS011;23099;42.636;23.198;2022-12-15T07:37:38;49.45;;;14.35;;
37205;SDS011;23099;42.636;23.198;2022-12-15T07:40:05;54.60;;;16.53;;
37205;SDS011;23099;42.636;23.198;2022-12-15T07:44:59;29.57;;;13.37;;
37205;SDS011;23099;42.636;23.198;2022-12-15T07:47:26;26.40;;;12.90;;
37205;SDS011;23099;42.636;23.198;2022-12-15T07:49:53;25.03;;;12.37;;
37205;SDS011;23099;42.636;23.198;2022-12-15T07:52:21;30.90;;;15.63;;
37205;SDS011;23099;42.636;23.198;2022-12-15T07:54:48;22.17;;;10.97;;
37205;SDS011;23099;42.636;23.198;2022-12-15T07:57:15;25.07;;;12.57;;
37205;SDS011;23099;42.636;23.198;2022-12-15T07:59:42;19.33;;;10.67;;
37205;SDS011;23099;42.636;23.198;2022-12-15T08:02:09;14.60;;;7.77;;
37205;SDS011;23099;42.636;23.198;2022-12-15T08:04:36;13.93;;;6.57;;
37205;SDS011;23099;42.636;23.198;2022-12-15T08:07:03;16.17;;;8.53;;
37205;SDS011;23099;42.636;23.198;2022-12-15T08:09:31;29.90;;;15.90;;
37205;SDS011;23099;42.636;23.198;2022-12-15T08:11:58;16.75;;;9.05;;
37205;SDS011;23099;42.636;23.198;2022-12-15T08:14:25;12.97;;;5.90;;
37205;SDS011;23099;42.636;23.198;2022-12-15T08:16:52;22.20;;;11.50;;
37205;SDS011;23099;42.636;23.198;2022-12-15T08:19:19;14.90;;;6.10;;
37205;SDS011;23099;42.636;23.198;2022-12-15T08:21:46;18.27;;;7.93;;
37205;SDS011;23099;42.636;23.198;2022-12-15T08:24:13;35.97;;;16.97;;
37205;SDS011;23099;42.636;23.198;2022-12-15T08:26:42;33.97;;;16.55;;
37205;SDS011;23099;42.636;23.198;2022-12-15T08:29:10;13.93;;;6.80;;
37205;SDS011;23099;42.636;23.198;2022-12-15T08:31:38;26.45;;;10.00;;
37205;SDS011;23099;42.636;23.198;2022-12-15T08:34:05;19.88;;;10.75;;
37205;SDS011;23099;42.636;23.198;2022-12-15T08:36:32;13.13;;;6.43;;
37205;SDS011;23099;42.636;23.198;2022-12-15T08:39:00;10.40;;;4.65;;
37205;SDS011;23099;42.636;23.198;2022-12-15T08:41:28;10.43;;;4.20;;
37205;SDS011;23099;42.636;23.198;2022-12-15T08:43:58;9.83;;;5.00;;
37205;SDS011;23099;42.636;23.198;2022-12-15T08:46:27;14.48;;;6.93;;
37205;SDS011;23099;42.636;23.198;2022-12-15T08:48:55;9.52;;;4.47;;
37205;SDS011;23099;42.636;23.198;2022-12-15T08:51:23;8.35;;;4.05;;
37205;SDS011;23099;42.636;23.198;2022-12-15T08:53:52;8.80;;;4.10;;
37205;SDS011;23099;42.636;23.198;2022-12-15T08:56:20;8.90;;;3.77;;
37205;SDS011;23099;42.636;23.198;2022-12-15T08:58:47;9.30;;;4.32;;
37205;SDS011;23099;42.636;23.198;2022-12-15T09:03:46;7.95;;;3.70;;
37205;SDS011;23099;42.636;23.198;2022-12-15T09:06:14;10.88;;;4.30;;
37205;SDS011;23099;42.636;23.198;2022-12-15T09:08:43;9.30;;;4.32;;
37205;SDS011;23099;42.636;23.198;2022-12-15T09:11:10;9.13;;;4.10;;
37205;SDS011;23099;42.636;23.198;2022-12-15T09:13:37;51.97;;;14.77;;
37205;SDS011;23099;42.636;23.198;2022-12-15T09:16:05;11.02;;;4.53;;
37205;SDS011;23099;42.636;23.198;2022-12-15T09:18:35;8.07;;;3.80;;
37205;SDS011;23099;42.636;23.198;2022-12-15T09:21:02;8.10;;;3.78;;
37205;SDS011;23099;42.636;23.198;2022-12-15T09:23:30;7.63;;;3.38;;
37205;SDS011;23099;42.636;23.198;2022-12-15T09:26:00;7.13;;;3.23;;
37205;SDS011;23099;42.636;23.198;2022-12-15T09:28:27;7.93;;;3.97;;
37205;SDS011;23099;42.636;23.198;2022-12-15T09:31:00;10.05;;;4.50;;
37205;SDS011;23099;42.636;23.198;2022-12-15T09:33:27;9.55;;;4.47;;
37205;SDS011;23099;42.636;23.198;2022-12-15T09:35:56;12.90;;;5.35;;
37205;SDS011;23099;42.636;23.198;2022-12-15T09:38:22;9.95;;;4.53;;
37205;SDS011;23099;42.636;23.198;2022-12-15T09:40:49;8.85;;;3.63;;
37205;SDS011;23099;42.636;23.198;2022-12-15T09:43:17;10.18;;;4.60;;
37205;SDS011;23099;42.636;23.198;2022-12-15T09:45:49;8.70;;;3.85;;
37205;SDS011;23099;42.636;23.198;2022-12-15T09:48:22;9.43;;;4.32;;
37205;SDS011;23099;42.636;23.198;2022-12-15T09:50:51;9.85;;;4.13;;
37205;SDS011;23099;42.636;23.198;2022-12-15T09:53:22;9.80;;;4.63;;
37205;SDS011;23099;42.636;23.198;2022-12-15T09:55:51;13.05;;;5.53;;
37205;SDS011;23099;42.636;23.198;2022-12-15T09:58:25;11.40;;;5.88;;
37205;SDS011;23099;42.636;23.198;2022-12-15T10:01:00;11.32;;;6.45;;
37205;SDS011;23099;42.636;23.198;2022-12-15T10:03:39;12.45;;;8.15;;
37205;SDS011;23099;42.636;23.198;2022-12-15T10:06:15;12.45;;;5.60;;
37205;SDS011;23099;42.636;23.198;2022-12-15T10:08:47;12.52;;;5.60;;
37205;SDS011;23099;42.636;23.198;2022-12-15T10:11:19;11.77;;;5.22;;
37205;SDS011;23099;42.636;23.198;2022-12-15T10:13:53;10.35;;;5.55;;
37205;SDS011;23099;42.636;23.198;2022-12-15T10:16:26;16.80;;;8.38;;
37205;SDS011;23099;42.636;23.198;2022-12-15T10:19:02;15.15;;;8.40;;
37205;SDS011;23099;42.636;23.198;2022-12-15T10:21:34;20.83;;;11.00;;
37205;SDS011;23099;42.636;23.198;2022-12-15T10:24:11;20.88;;;12.50;;
37205;SDS011;23099;42.636;23.198;2022-12-15T10:26:42;20.90;;;13.30;;
37205;SDS011;23099;42.636;23.198;2022-12-15T10:29:21;23.25;;;14.13;;
37205;SDS011;23099;42.636;23.198;2022-12-15T10:34:26;34.78;;;19.73;;
37205;SDS011;23099;42.636;23.198;2022-12-15T10:39:22;49.92;;;26.33;;
37205;SDS011;23099;42.636;23.198;2022-12-15T10:42:14;44.55;;;25.80;;
37205;SDS011;23099;42.636;23.198;2022-12-15T10:44:45;43.42;;;26.05;;
37205;SDS011;23099;42.636;23.198;2022-12-15T10:49:42;44.85;;;26.33;;
37205;SDS011;23099;42.636;23.198;2022-12-15T10:52:14;45.70;;;26.42;;
37205;SDS011;23099;42.636;23.198;2022-12-15T10:54:47;54.33;;;29.52;;
37205;SDS011;23099;42.636;23.198;2022-12-15T10:57:16;47.63;;;27.48;;
37205;SDS011;23099;42.636;23.198;2022-12-15T10:59:46;73.25;;;37.67;;
37205;SDS011;23099;42.636;23.198;2022-12-15T11:02:27;46.58;;;28.65;;
37205;SDS011;23099;42.636;23.198;2022-12-15T11:05:00;51.30;;;28.17;;
37205;SDS011;23099;42.636;23.198;2022-12-15T11:07:33;49.40;;;28.77;;
37205;SDS011;23099;42.636;23.198;2022-12-15T11:10:13;54.65;;;30.30;;
37205;SDS011;23099;42.636;23.198;2022-12-15T11:12:41;51.58;;;30.90;;
37205;SDS011;23099;42.636;23.198;2022-12-15T11:15:33;58.30;;;31.25;;
37205;SDS011;23099;42.636;23.198;2022-12-15T11:18:14;58.10;;;30.98;;
37205;SDS011;23099;42.636;23.198;2022-12-15T11:20:58;59.20;;;31.25;;
37205;SDS011;23099;42.636;23.198;2022-12-15T11:23:31;60.95;;;33.45;;
37205;SDS011;23099;42.636;23.198;2022-12-15T11:26:13;62.17;;;33.80;;
37205;SDS011;23099;42.636;23.198;2022-12-15T11:28:49;65.88;;;35.00;;
37205;SDS011;23099;42.636;23.198;2022-12-15T11:31:23;66.80;;;34.88;;
37205;SDS011;23099;42.636;23.198;2022-12-15T11:33:57;63.65;;;33.97;;
37205;SDS011;23099;42.636;23.198;2022-12-15T11:36:30;66.47;;;36.38;;
37205;SDS011;23099;42.636;23.198;2022-12-15T11:39:07;72.97;;;37.80;;
37205;SDS011;23099;42.636;23.198;2022-12-15T11:41:43;64.80;;;34.80;;
37205;SDS011;23099;42.636;23.198;2022-12-15T11:44:21;69.75;;;37.85;;
37205;SDS011;23099;42.636;23.198;2022-12-15T11:46:54;69.97;;;35.38;;
37205;SDS011;23099;42.636;23.198;2022-12-15T11:49:35;72.65;;;35.75;;
37205;SDS011;23099;42.636;23.198;2022-12-15T11:52:16;69.22;;;37.13;;
37205;SDS011;23099;42.636;23.198;2022-12-15T11:55:00;72.20;;;38.88;;
37205;SDS011;23099;42.636;23.198;2022-12-15T12:00:42;73.90;;;38.20;;
37205;SDS011;23099;42.636;23.198;2022-12-15T12:03:24;73.32;;;39.35;;
37205;SDS011;23099;42.636;23.198;2022-12-15T12:06:02;71.07;;;38.58;;
37205;SDS011;23099;42.636;23.198;2022-12-15T12:08:46;74.97;;;38.45;;
37205;SDS011;23099;42.636;23.198;2022-12-15T12:11:24;75.97;;;39.85;;
37205;SDS011;23099;42.636;23.198;2022-12-15T12:14:16;73.07;;;38.03;;
37205;SDS011;23099;42.636;23.198;2022-12-15T12:16:54;69.65;;;36.42;;
37205;SDS011;23099;42.636;23.198;2022-12-15T12:19:26;68.57;;;36.42;;
37205;SDS011;23099;42.636;23.198;2022-12-15T12:22:01;70.90;;;37.42;;
37205;SDS011;23099;42.636;23.198;2022-12-15T12:24:32;68.22;;;35.50;;
37205;SDS011;23099;42.636;23.198;2022-12-15T12:27:07;65.78;;;35.20;;
37205;SDS011;23099;42.636;23.198;2022-12-15T12:29:41;65.75;;;35.08;;
37205;SDS011;23099;42.636;23.198;2022-12-15T12:32:13;65.53;;;34.00;;
37205;SDS011;23099;42.636;23.198;2022-12-15T12:34:51;63.78;;;31.90;;
37205;SDS011;23099;42.636;23.198;2022-12-15T12:37:26;63.88;;;32.72;;
37205;SDS011;23099;42.636;23.198;2022-12-15T12:40:01;65.57;;;32.67;;
37205;SDS011;23099;42.636;23.198;2022-12-15T12:42:32;62.65;;;31.45;;
37205;SDS011;23099;42.636;23.198;2022-12-15T12:45:04;60.75;;;30.60;;
37205;SDS011;23099;42.636;23.198;2022-12-15T12:47:36;69.13;;;33.08;;
37205;SDS011;23099;42.636;23.198;2022-12-15T12:50:11;69.00;;;36.15;;
37205;SDS011;23099;42.636;23.198;2022-12-15T12:52:46;77.15;;;39.58;;
37205;SDS011;23099;42.636;23.198;2022-12-15T12:55:23;79.70;;;40.92;;
37205;SDS011;23099;42.636;23.198;2022-12-15T12:57:53;76.95;;;41.25;;
37205;SDS011;23099;42.636;23.198;2022-12-15T13:00:22;74.32;;;40.00;;
37205;SDS011;23099;42.636;23.198;2022-12-15T13:02:55;74.85;;;38.28;;
37205;SDS011;23099;42.636;23.198;2022-12-15T13:05:37;69.13;;;36.83;;
37205;SDS011;23099;42.636;23.198;2022-12-15T13:10:44;65.15;;;32.67;;
37205;SDS011;23099;42.636;23.198;2022-12-15T13:13:15;62.30;;;31.17;;
37205;SDS011;23099;42.636;23.198;2022-12-15T13:16:03;50.47;;;27.25;;
37205;SDS011;23099;42.636;23.198;2022-12-15T13:18:56;50.92;;;26.77;;
37205;SDS011;23099;42.636;23.198;2022-12-15T13:24:30;49.38;;;26.17;;
37205;SDS011;23099;42.636;23.198;2022-12-15T13:27:09;48.55;;;26.10;;
37205;SDS011;23099;42.636;23.198;2022-12-15T13:29:52;47.03;;;25.02;;
37205;SDS011;23099;42.636;23.198;2022-12-15T13:32:28;51.38;;;25.90;;
37205;SDS011;23099;42.636;23.198;2022-12-15T13:35:14;54.40;;;27.13;;
37205;SDS011;23099;42.636;23.198;2022-12-15T13:37:47;50.65;;;26.13;;
37205;SDS011;23099;42.636;23.198;2022-12-15T13:40:26;55.00;;;29.15;;
37205;SDS011;23099;42.636;23.198;2022-12-15T13:42:57;52.90;;;28.80;;
37205;SDS011;23099;42.636;23.198;2022-12-15T13:48:19;54.28;;;28.25;;
37205;SDS011;23099;42.636;23.198;2022-12-15T13:50:54;57.67;;;28.38;;
37205;SDS011;23099;42.636;23.198;2022-12-15T13:53:25;58.38;;;28.50;;
37205;SDS011;23099;42.636;23.198;2022-12-15T13:55:58;48.08;;;25.23;;
37205;SDS011;23099;42.636;23.198;2022-12-15T13:58:40;46.83;;;24.35;;
37205;SDS011;23099;42.636;23.198;2022-12-15T14:01:19;94.43;;;28.52;;
37205;SDS011;23099;42.636;23.198;2022-12-15T14:06:43;121.00;;;31.13;;
37205;SDS011;23099;42.636;23.198;2022-12-15T14:09:12;168.98;;;33.45;;
37205;SDS011;23099;42.636;23.198;2022-12-15T14:11:42;228.98;;;33.53;;
37205;SDS011;23099;42.636;23.198;2022-12-15T14:14:14;118.03;;;30.42;;
37205;SDS011;23099;42.636;23.198;2022-12-15T14:16:44;258.25;;;35.88;;
37205;SDS011;23099;42.636;23.198;2022-12-15T14:19:14;152.57;;;32.38;;
37205;SDS011;23099;42.636;23.198;2022-12-15T14:21:47;115.00;;;31.80;;
37205;SDS011;23099;42.636;23.198;2022-12-15T14:24:20;188.05;;;34.08;;
37205;SDS011;23099;42.636;23.198;2022-12-15T14:26:49;392.17;;;41.78;;
37205;SDS011;23099;42.636;23.198;2022-12-15T14:29:16;270.85;;;37.80;;
37205;SDS011;23099;42.636;23.198;2022-12-15T14:31:43;145.95;;;34.30;;
37205;SDS011;23099;42.636;23.198;2022-12-15T14:34:17;274.35;;;37.15;;
37205;SDS011;23099;42.636;23.198;2022-12-15T14:36:48;185.93;;;31.58;;
37205;SDS011;23099;42.636;23.198;2022-12-15T14:39:18;302.08;;;36.53;;
37205;SDS011;23099;42.636;23.198;2022-12-15T14:41:49;171.98;;;31.95;;
37205;SDS011;23099;42.636;23.198;2022-12-15T14:46:47;281.70;;;32.03;;
37205;SDS011;23099;42.636;23.198;2022-12-15T14:49:17;401.17;;;37.65;;
37205;SDS011;23099;42.636;23.198;2022-12-15T14:51:47;181.20;;;28.75;;
37205;SDS011;23099;42.636;23.198;2022-12-15T14:54:26;591.72;;;46.45;;
37205;SDS011;23099;42.636;23.198;2022-12-15T14:56:56;344.13;;;35.45;;
37205;SDS011;23099;42.636;23.198;2022-12-15T14:59:28;203.98;;;31.90;;
37205;SDS011;23099;42.636;23.198;2022-12-15T15:01:57;183.75;;;29.13;;
37205;SDS011;23099;42.636;23.198;2022-12-15T15:04:30;53.00;;;22.90;;
37205;SDS011;23099;42.636;23.198;2022-12-15T15:06:59;65.60;;;22.65;;
37205;SDS011;23099;42.636;23.198;2022-12-15T15:09:28;129.57;;;25.25;;
37205;SDS011;23099;42.636;23.198;2022-12-15T15:11:56;233.25;;;27.77;;
37205;SDS011;23099;42.636;23.198;2022-12-15T15:14:28;56.25;;;23.90;;
37205;SDS011;23099;42.636;23.198;2022-12-15T15:17:04;84.40;;;32.88;;
37205;SDS011;23099;42.636;23.198;2022-12-15T15:19:36;80.57;;;32.75;;
37205;SDS011;23099;42.636;23.198;2022-12-15T15:22:10;142.13;;;47.70;;
37205;SDS011;23099;42.636;23.198;2022-12-15T15:24:50;339.73;;;69.07;;
37205;SDS011;23099;42.636;23.198;2022-12-15T15:27:22;280.42;;;90.43;;
37205;SDS011;23099;42.636;23.198;2022-12-15T15:29:49;382.85;;;119.22;;
37205;SDS011;23099;42.636;23.198;2022-12-15T15:32:17;596.70;;;122.85;;